Surgut, Russia
Current Conditions -  °F | °C
As of 4:30 PM on Monday 20 Oct 2014 (Local Time) from USRR Reporting Station
Light Snow Light Snow  
Wind Chill: 11°   Ceiling: 1400
Heat Index: 19°   Visibility: 4mi
Dew Point: 18°   Wind: 7mph
Humidity: 93%   Direction: 80°E
Pressure: 29.41"   Gusts: NA
Location:  61.25°N, 73.42°E
Report Text: USRR 201130Z 08003MPS 6000 -SN OVC014 M07/M08 Q0996 TEMPO 2000SN BKN007 RMK OBST OBSC QFE742 07////37
Loading
Personal Weather Stations






























Interactive Weather Map
Tropical Storm Tracking
New forecast layout! Learn more

10-Day Weather Forecast

Advertisements
Track Severe Weather on mobile